sensor_id;sensor_type;location;lat;lon;timestamp;P1;durP1;ratioP1;P2;durP2;ratioP2
4527;SDS011;62320;51.520;6.818;2023-03-03T00:02:35;53.47;;;17.97;;
4527;SDS011;62320;51.520;6.818;2023-03-03T00:12:42;23.00;;;8.48;;
4527;SDS011;62320;51.520;6.818;2023-03-03T00:22:47;34.53;;;11.80;;
4527;SDS011;62320;51.520;6.818;2023-03-03T00:32:49;22.30;;;8.10;;
4527;SDS011;62320;51.520;6.818;2023-03-03T00:42:54;38.33;;;12.95;;
4527;SDS011;62320;51.520;6.818;2023-03-03T00:52:59;41.45;;;14.45;;
4527;SDS011;62320;51.520;6.818;2023-03-03T01:03:03;29.60;;;9.53;;
4527;SDS011;62320;51.520;6.818;2023-03-03T01:13:07;43.17;;;17.67;;
4527;SDS011;62320;51.520;6.818;2023-03-03T01:23:10;25.35;;;8.43;;
4527;SDS011;62320;51.520;6.818;2023-03-03T01:33:12;27.30;;;10.03;;
4527;SDS011;62320;51.520;6.818;2023-03-03T01:43:14;32.93;;;11.90;;
4527;SDS011;62320;51.520;6.818;2023-03-03T01:53:27;55.03;;;18.73;;
4527;SDS011;62320;51.520;6.818;2023-03-03T02:03:34;44.73;;;14.60;;
4527;SDS011;62320;51.520;6.818;2023-03-03T02:13:36;37.20;;;13.20;;
4527;SDS011;62320;51.520;6.818;2023-03-03T02:23:49;28.98;;;12.68;;
4527;SDS011;62320;51.520;6.818;2023-03-03T02:33:52;46.03;;;14.98;;
4527;SDS011;62320;51.520;6.818;2023-03-03T02:44:02;53.53;;;15.63;;
4527;SDS011;62320;51.520;6.818;2023-03-03T02:54:04;35.03;;;12.67;;
4527;SDS011;62320;51.520;6.818;2023-03-03T03:04:16;25.13;;;10.18;;
4527;SDS011;62320;51.520;6.818;2023-03-03T03:14:20;31.07;;;11.40;;
4527;SDS011;62320;51.520;6.818;2023-03-03T03:24:22;32.47;;;11.77;;
4527;SDS011;62320;51.520;6.818;2023-03-03T03:34:23;28.95;;;10.52;;
4527;SDS011;62320;51.520;6.818;2023-03-03T03:44:25;37.10;;;13.63;;
4527;SDS011;62320;51.520;6.818;2023-03-03T03:54:26;29.70;;;10.07;;
4527;SDS011;62320;51.520;6.818;2023-03-03T04:04:28;22.50;;;8.15;;
4527;SDS011;62320;51.520;6.818;2023-03-03T04:14:29;27.25;;;9.20;;
4527;SDS011;62320;51.520;6.818;2023-03-03T04:24:31;39.67;;;11.43;;
4527;SDS011;62320;51.520;6.818;2023-03-03T04:34:33;9.97;;;5.37;;
4527;SDS011;62320;51.520;6.818;2023-03-03T04:44:34;32.65;;;14.20;;
4527;SDS011;62320;51.520;6.818;2023-03-03T04:54:36;27.77;;;9.90;;
4527;SDS011;62320;51.520;6.818;2023-03-03T05:04:37;25.77;;;9.40;;
4527;SDS011;62320;51.520;6.818;2023-03-03T05:14:39;26.00;;;9.93;;
4527;SDS011;62320;51.520;6.818;2023-03-03T05:24:41;47.67;;;13.73;;
4527;SDS011;62320;51.520;6.818;2023-03-03T05:34:43;59.53;;;18.17;;
4527;SDS011;62320;51.520;6.818;2023-03-03T05:44:44;54.83;;;20.00;;
4527;SDS011;62320;51.520;6.818;2023-03-03T05:54:46;34.67;;;11.02;;
4527;SDS011;62320;51.520;6.818;2023-03-03T06:04:47;37.40;;;10.20;;
4527;SDS011;62320;51.520;6.818;2023-03-03T06:14:49;47.53;;;14.07;;
4527;SDS011;62320;51.520;6.818;2023-03-03T06:24:50;23.95;;;8.18;;
4527;SDS011;62320;51.520;6.818;2023-03-03T06:34:52;43.30;;;13.80;;
4527;SDS011;62320;51.520;6.818;2023-03-03T06:44:54;36.47;;;10.53;;
4527;SDS011;62320;51.520;6.818;2023-03-03T06:54:57;44.90;;;14.70;;
4527;SDS011;62320;51.520;6.818;2023-03-03T07:05:00;48.57;;;14.47;;
4527;SDS011;62320;51.520;6.818;2023-03-03T07:15:12;38.07;;;13.47;;
4527;SDS011;62320;51.520;6.818;2023-03-03T07:25:29;40.83;;;11.73;;
4527;SDS011;62320;51.520;6.818;2023-03-03T07:45:35;40.83;;;14.37;;
4527;SDS011;62320;51.520;6.818;2023-03-03T07:55:38;40.60;;;11.10;;
4527;SDS011;62320;51.520;6.818;2023-03-03T08:05:41;42.25;;;11.90;;
4527;SDS011;62320;51.520;6.818;2023-03-03T08:15:45;26.23;;;11.27;;
4527;SDS011;62320;51.520;6.818;2023-03-03T08:25:50;39.60;;;11.27;;
4527;SDS011;62320;51.520;6.818;2023-03-03T08:35:52;25.63;;;8.68;;
4527;SDS011;62320;51.520;6.818;2023-03-03T08:45:55;13.43;;;4.70;;
4527;SDS011;62320;51.520;6.818;2023-03-03T08:55:59;32.83;;;9.53;;
4527;SDS011;62320;51.520;6.818;2023-03-03T09:06:01;32.88;;;8.75;;
4527;SDS011;62320;51.520;6.818;2023-03-03T09:16:06;41.47;;;10.75;;
4527;SDS011;62320;51.520;6.818;2023-03-03T09:36:25;38.47;;;10.87;;
4527;SDS011;62320;51.520;6.818;2023-03-03T09:46:51;29.17;;;7.75;;
4527;SDS011;62320;51.520;6.818;2023-03-03T10:17:52;21.60;;;7.38;;
4527;SDS011;62320;51.520;6.818;2023-03-03T10:38:53;31.73;;;9.43;;
4527;SDS011;62320;51.520;6.818;2023-03-03T10:49:20;40.13;;;11.95;;
4527;SDS011;62320;51.520;6.818;2023-03-03T11:09:51;33.73;;;12.50;;
4527;SDS011;62320;51.520;6.818;2023-03-03T11:20:23;24.00;;;8.40;;
4527;SDS011;62320;51.520;6.818;2023-03-03T11:41:14;37.57;;;12.67;;
4527;SDS011;62320;51.520;6.818;2023-03-03T12:12:17;38.93;;;12.40;;
4527;SDS011;62320;51.520;6.818;2023-03-03T12:22:34;28.37;;;10.80;;
4527;SDS011;62320;51.520;6.818;2023-03-03T12:32:51;49.38;;;16.42;;
4527;SDS011;62320;51.520;6.818;2023-03-03T12:43:27;29.33;;;10.48;;
4527;SDS011;62320;51.520;6.818;2023-03-03T13:24:22;28.50;;;9.27;;
4527;SDS011;62320;51.520;6.818;2023-03-03T13:44:33;26.02;;;8.10;;
4527;SDS011;62320;51.520;6.818;2023-03-03T13:54:52;23.27;;;7.17;;
4527;SDS011;62320;51.520;6.818;2023-03-03T14:15:28;22.45;;;7.80;;
4527;SDS011;62320;51.520;6.818;2023-03-03T14:36:09;18.43;;;6.90;;
4527;SDS011;62320;51.520;6.818;2023-03-03T14:56:35;18.65;;;6.53;;
4527;SDS011;62320;51.520;6.818;2023-03-03T15:06:40;18.27;;;6.40;;
4527;SDS011;62320;51.520;6.818;2023-03-03T15:16:44;17.03;;;4.97;;
4527;SDS011;62320;51.520;6.818;2023-03-03T15:27:00;14.60;;;5.57;;
4527;SDS011;62320;51.520;6.818;2023-03-03T15:47:37;19.07;;;6.93;;
4527;SDS011;62320;51.520;6.818;2023-03-03T15:57:59;20.92;;;7.45;;
4527;SDS011;62320;51.520;6.818;2023-03-03T16:18:26;22.20;;;8.63;;
4527;SDS011;62320;51.520;6.818;2023-03-03T16:39:16;22.23;;;7.68;;
4527;SDS011;62320;51.520;6.818;2023-03-03T16:49:28;21.60;;;7.87;;
4527;SDS011;62320;51.520;6.818;2023-03-03T17:00:08;13.90;;;5.93;;
4527;SDS011;62320;51.520;6.818;2023-03-03T17:20:45;19.70;;;7.50;;
4527;SDS011;62320;51.520;6.818;2023-03-03T18:02:28;18.87;;;7.33;;
4527;SDS011;62320;51.520;6.818;2023-03-03T18:12:55;17.33;;;7.20;;
4527;SDS011;62320;51.520;6.818;2023-03-03T18:33:56;20.40;;;8.63;;
4527;SDS011;62320;51.520;6.818;2023-03-03T18:44:28;25.73;;;10.10;;
4527;SDS011;62320;51.520;6.818;2023-03-03T18:54:34;28.00;;;12.20;;
4527;SDS011;62320;51.520;6.818;2023-03-03T19:04:53;24.73;;;9.27;;
4527;SDS011;62320;51.520;6.818;2023-03-03T19:14:56;24.57;;;10.90;;
4527;SDS011;62320;51.520;6.818;2023-03-03T20:06:09;15.88;;;6.78;;
4527;SDS011;62320;51.520;6.818;2023-03-03T20:47:42;12.90;;;5.87;;
4527;SDS011;62320;51.520;6.818;2023-03-03T20:57:52;9.10;;;4.53;;
4527;SDS011;62320;51.520;6.818;2023-03-03T21:08:01;9.88;;;5.82;;
4527;SDS011;62320;51.520;6.818;2023-03-03T21:18:21;14.55;;;6.55;;
4527;SDS011;62320;51.520;6.818;2023-03-03T21:28:25;9.30;;;4.73;;
4527;SDS011;62320;51.520;6.818;2023-03-03T21:38:32;10.43;;;5.23;;
4527;SDS011;62320;51.520;6.818;2023-03-03T21:48:38;11.00;;;6.30;;
4527;SDS011;62320;51.520;6.818;2023-03-03T21:58:40;12.77;;;5.37;;
4527;SDS011;62320;51.520;6.818;2023-03-03T22:08:43;8.73;;;3.73;;
4527;SDS011;62320;51.520;6.818;2023-03-03T22:18:44;10.40;;;4.30;;
4527;SDS011;62320;51.520;6.818;2023-03-03T22:28:46;13.33;;;3.53;;
4527;SDS011;62320;51.520;6.818;2023-03-03T22:38:49;13.83;;;3.80;;
4527;SDS011;62320;51.520;6.818;2023-03-03T22:48:51;12.05;;;2.95;;
4527;SDS011;62320;51.520;6.818;2023-03-03T22:58:53;12.70;;;3.55;;
4527;SDS011;62320;51.520;6.818;2023-03-03T23:08:54;13.70;;;2.83;;
4527;SDS011;62320;51.520;6.818;2023-03-03T23:18:56;10.57;;;2.40;;
4527;SDS011;62320;51.520;6.818;2023-03-03T23:28:57;8.70;;;2.25;;
4527;SDS011;62320;51.520;6.818;2023-03-03T23:38:59;8.83;;;2.27;;
4527;SDS011;62320;51.520;6.818;2023-03-03T23:49:00;11.00;;;2.40;;
4527;SDS011;62320;51.520;6.818;2023-03-03T23:59:02;9.35;;;2.33;;
